sensor_id;sensor_type;location;lat;lon;timestamp;P1;durP1;ratioP1;P2;durP2;ratioP2
76425;SDS011;65258;42.680;23.266;2022-12-31T00:00:38;65.18;;;33.58;;
76425;SDS011;65258;42.680;23.266;2022-12-31T00:03:05;63.17;;;33.47;;
76425;SDS011;65258;42.680;23.266;2022-12-31T00:05:33;62.25;;;33.03;;
76425;SDS011;65258;42.680;23.266;2022-12-31T00:08:00;67.00;;;33.50;;
76425;SDS011;65258;42.680;23.266;2022-12-31T00:10:27;65.35;;;32.75;;
76425;SDS011;65258;42.680;23.266;2022-12-31T00:12:53;60.67;;;33.72;;
76425;SDS011;65258;42.680;23.266;2022-12-31T00:15:18;64.63;;;33.65;;
76425;SDS011;65258;42.680;23.266;2022-12-31T00:17:44;60.45;;;32.63;;
76425;SDS011;65258;42.680;23.266;2022-12-31T00:20:10;67.85;;;34.47;;
76425;SDS011;65258;42.680;23.266;2022-12-31T00:22:35;60.17;;;31.15;;
76425;SDS011;65258;42.680;23.266;2022-12-31T00:25:01;56.95;;;30.90;;
76425;SDS011;65258;42.680;23.266;2022-12-31T00:27:30;53.65;;;30.13;;
76425;SDS011;65258;42.680;23.266;2022-12-31T00:29:56;49.85;;;29.08;;
76425;SDS011;65258;42.680;23.266;2022-12-31T00:32:21;55.72;;;29.52;;
76425;SDS011;65258;42.680;23.266;2022-12-31T00:34:47;48.13;;;26.98;;
76425;SDS011;65258;42.680;23.266;2022-12-31T00:37:12;49.63;;;25.73;;
76425;SDS011;65258;42.680;23.266;2022-12-31T00:39:38;50.90;;;26.80;;
76425;SDS011;65258;42.680;23.266;2022-12-31T00:42:03;50.03;;;26.63;;
76425;SDS011;65258;42.680;23.266;2022-12-31T00:44:29;43.95;;;25.15;;
76425;SDS011;65258;42.680;23.266;2022-12-31T00:46:55;48.72;;;24.02;;
76425;SDS011;65258;42.680;23.266;2022-12-31T00:49:20;43.15;;;23.38;;
76425;SDS011;65258;42.680;23.266;2022-12-31T00:51:46;48.90;;;24.75;;
76425;SDS011;65258;42.680;23.266;2022-12-31T00:54:11;45.33;;;24.98;;
76425;SDS011;65258;42.680;23.266;2022-12-31T00:56:37;49.50;;;26.20;;
76425;SDS011;65258;42.680;23.266;2022-12-31T00:59:02;51.33;;;26.23;;
76425;SDS011;65258;42.680;23.266;2022-12-31T01:01:32;54.95;;;28.08;;
76425;SDS011;65258;42.680;23.266;2022-12-31T01:04:02;60.97;;;30.73;;
76425;SDS011;65258;42.680;23.266;2022-12-31T01:06:29;52.97;;;27.15;;
76425;SDS011;65258;42.680;23.266;2022-12-31T01:08:55;60.65;;;29.77;;
76425;SDS011;65258;42.680;23.266;2022-12-31T01:11:20;55.38;;;28.98;;
76425;SDS011;65258;42.680;23.266;2022-12-31T01:13:48;53.95;;;30.10;;
76425;SDS011;65258;42.680;23.266;2022-12-31T01:16:19;56.83;;;29.65;;
76425;SDS011;65258;42.680;23.266;2022-12-31T01:18:49;65.70;;;33.67;;
76425;SDS011;65258;42.680;23.266;2022-12-31T01:21:16;63.88;;;31.30;;
76425;SDS011;65258;42.680;23.266;2022-12-31T01:23:42;73.97;;;36.85;;
76425;SDS011;65258;42.680;23.266;2022-12-31T01:26:09;74.78;;;33.83;;
76425;SDS011;65258;42.680;23.266;2022-12-31T01:28:36;70.40;;;36.13;;
76425;SDS011;65258;42.680;23.266;2022-12-31T01:31:03;71.60;;;34.15;;
76425;SDS011;65258;42.680;23.266;2022-12-31T01:33:34;67.28;;;33.45;;
76425;SDS011;65258;42.680;23.266;2022-12-31T01:36:01;67.25;;;35.70;;
76425;SDS011;65258;42.680;23.266;2022-12-31T01:38:31;68.07;;;36.33;;
76425;SDS011;65258;42.680;23.266;2022-12-31T01:40:58;66.90;;;35.17;;
76425;SDS011;65258;42.680;23.266;2022-12-31T01:43:39;66.30;;;33.35;;
76425;SDS011;65258;42.680;23.266;2022-12-31T01:46:08;68.05;;;35.33;;
76425;SDS011;65258;42.680;23.266;2022-12-31T01:48:36;75.82;;;36.47;;
76425;SDS011;65258;42.680;23.266;2022-12-31T01:51:02;71.88;;;35.45;;
76425;SDS011;65258;42.680;23.266;2022-12-31T01:53:29;71.57;;;34.53;;
76425;SDS011;65258;42.680;23.266;2022-12-31T01:55:56;70.47;;;35.60;;
76425;SDS011;65258;42.680;23.266;2022-12-31T02:00:48;82.63;;;42.47;;
76425;SDS011;65258;42.680;23.266;2022-12-31T02:08:16;80.20;;;39.17;;
76425;SDS011;65258;42.680;23.266;2022-12-31T02:10:42;73.13;;;37.55;;
76425;SDS011;65258;42.680;23.266;2022-12-31T02:13:08;66.88;;;37.97;;
76425;SDS011;65258;42.680;23.266;2022-12-31T02:15:38;74.57;;;38.03;;
76425;SDS011;65258;42.680;23.266;2022-12-31T02:26:52;68.82;;;36.63;;
76425;SDS011;65258;42.680;23.266;2022-12-31T02:32:12;69.05;;;36.13;;
76425;SDS011;65258;42.680;23.266;2022-12-31T02:34:45;71.18;;;36.63;;
76425;SDS011;65258;42.680;23.266;2022-12-31T02:37:14;73.32;;;36.60;;
76425;SDS011;65258;42.680;23.266;2022-12-31T02:39:44;71.57;;;36.42;;
76425;SDS011;65258;42.680;23.266;2022-12-31T02:42:10;69.88;;;36.10;;
76425;SDS011;65258;42.680;23.266;2022-12-31T02:44:37;75.35;;;37.58;;
76425;SDS011;65258;42.680;23.266;2022-12-31T02:55:29;67.60;;;35.45;;
76425;SDS011;65258;42.680;23.266;2022-12-31T03:01:23;58.63;;;31.35;;
76425;SDS011;65258;42.680;23.266;2022-12-31T03:04:12;65.85;;;34.22;;
76425;SDS011;65258;42.680;23.266;2022-12-31T03:07:39;60.80;;;34.17;;
76425;SDS011;65258;42.680;23.266;2022-12-31T03:09:47;67.80;;;33.50;;
76425;SDS011;65258;42.680;23.266;2022-12-31T03:12:14;65.47;;;32.25;;
76425;SDS011;65258;42.680;23.266;2022-12-31T03:14:58;64.80;;;32.80;;
76425;SDS011;65258;42.680;23.266;2022-12-31T03:17:24;60.58;;;32.50;;
76425;SDS011;65258;42.680;23.266;2022-12-31T03:19:50;66.00;;;34.55;;
76425;SDS011;65258;42.680;23.266;2022-12-31T03:22:36;62.75;;;32.42;;
76425;SDS011;65258;42.680;23.266;2022-12-31T03:25:05;52.08;;;29.27;;
76425;SDS011;65258;42.680;23.266;2022-12-31T03:27:54;55.40;;;28.95;;
76425;SDS011;65258;42.680;23.266;2022-12-31T03:30:20;47.80;;;28.30;;
76425;SDS011;65258;42.680;23.266;2022-12-31T03:32:48;51.08;;;26.08;;
76425;SDS011;65258;42.680;23.266;2022-12-31T03:35:15;49.83;;;27.33;;
76425;SDS011;65258;42.680;23.266;2022-12-31T03:37:43;50.85;;;25.77;;
76425;SDS011;65258;42.680;23.266;2022-12-31T03:40:09;47.95;;;26.63;;
76425;SDS011;65258;42.680;23.266;2022-12-31T03:42:37;57.63;;;28.27;;
76425;SDS011;65258;42.680;23.266;2022-12-31T03:45:03;54.58;;;31.75;;
76425;SDS011;65258;42.680;23.266;2022-12-31T03:47:29;60.95;;;31.02;;
76425;SDS011;65258;42.680;23.266;2022-12-31T03:49:55;55.70;;;29.25;;
76425;SDS011;65258;42.680;23.266;2022-12-31T03:52:20;56.40;;;32.03;;
76425;SDS011;65258;42.680;23.266;2022-12-31T03:54:46;65.15;;;33.40;;
76425;SDS011;65258;42.680;23.266;2022-12-31T03:57:11;59.08;;;30.17;;
76425;SDS011;65258;42.680;23.266;2022-12-31T03:59:37;63.95;;;32.30;;
76425;SDS011;65258;42.680;23.266;2022-12-31T04:02:03;59.97;;;31.08;;
76425;SDS011;65258;42.680;23.266;2022-12-31T04:04:28;69.53;;;32.42;;
76425;SDS011;65258;42.680;23.266;2022-12-31T04:06:54;57.92;;;30.65;;
76425;SDS011;65258;42.680;23.266;2022-12-31T04:09:20;55.95;;;29.83;;
76425;SDS011;65258;42.680;23.266;2022-12-31T04:11:45;59.90;;;30.52;;
76425;SDS011;65258;42.680;23.266;2022-12-31T04:14:11;58.53;;;28.60;;
76425;SDS011;65258;42.680;23.266;2022-12-31T04:16:36;46.50;;;26.45;;
76425;SDS011;65258;42.680;23.266;2022-12-31T04:19:02;50.35;;;28.17;;
76425;SDS011;65258;42.680;23.266;2022-12-31T04:21:27;50.97;;;26.83;;
76425;SDS011;65258;42.680;23.266;2022-12-31T04:23:53;57.85;;;27.40;;
76425;SDS011;65258;42.680;23.266;2022-12-31T04:26:19;49.75;;;26.35;;
76425;SDS011;65258;42.680;23.266;2022-12-31T04:28:44;57.50;;;29.00;;
76425;SDS011;65258;42.680;23.266;2022-12-31T04:31:10;52.75;;;28.33;;
76425;SDS011;65258;42.680;23.266;2022-12-31T04:33:35;51.65;;;28.02;;
76425;SDS011;65258;42.680;23.266;2022-12-31T04:36:04;51.67;;;27.67;;
76425;SDS011;65258;42.680;23.266;2022-12-31T04:38:31;52.78;;;26.33;;
76425;SDS011;65258;42.680;23.266;2022-12-31T04:40:57;56.00;;;27.80;;
76425;SDS011;65258;42.680;23.266;2022-12-31T04:43:41;44.65;;;23.70;;
76425;SDS011;65258;42.680;23.266;2022-12-31T04:46:08;49.75;;;25.48;;
76425;SDS011;65258;42.680;23.266;2022-12-31T04:48:34;47.28;;;25.40;;
76425;SDS011;65258;42.680;23.266;2022-12-31T04:50:59;48.13;;;25.02;;
76425;SDS011;65258;42.680;23.266;2022-12-31T04:53:25;48.10;;;24.35;;
76425;SDS011;65258;42.680;23.266;2022-12-31T04:55:52;49.60;;;24.10;;
76425;SDS011;65258;42.680;23.266;2022-12-31T04:58:18;44.08;;;22.15;;
76425;SDS011;65258;42.680;23.266;2022-12-31T05:00:47;54.50;;;24.85;;
76425;SDS011;65258;42.680;23.266;2022-12-31T05:03:19;46.08;;;24.48;;
76425;SDS011;65258;42.680;23.266;2022-12-31T05:05:46;54.70;;;27.45;;
76425;SDS011;65258;42.680;23.266;2022-12-31T05:08:11;53.92;;;25.40;;
76425;SDS011;65258;42.680;23.266;2022-12-31T05:10:41;48.58;;;25.48;;
76425;SDS011;65258;42.680;23.266;2022-12-31T05:13:08;49.92;;;25.58;;
76425;SDS011;65258;42.680;23.266;2022-12-31T05:15:34;48.72;;;25.58;;
76425;SDS011;65258;42.680;23.266;2022-12-31T05:18:00;55.35;;;26.55;;
76425;SDS011;65258;42.680;23.266;2022-12-31T05:20:25;47.50;;;25.27;;
76425;SDS011;65258;42.680;23.266;2022-12-31T05:22:52;54.80;;;27.38;;
76425;SDS011;65258;42.680;23.266;2022-12-31T05:25:17;61.30;;;29.63;;
76425;SDS011;65258;42.680;23.266;2022-12-31T05:27:43;67.50;;;32.05;;
76425;SDS011;65258;42.680;23.266;2022-12-31T05:30:09;63.08;;;28.58;;
76425;SDS011;65258;42.680;23.266;2022-12-31T05:32:35;74.15;;;36.22;;
76425;SDS011;65258;42.680;23.266;2022-12-31T05:35:01;64.45;;;30.27;;
76425;SDS011;65258;42.680;23.266;2022-12-31T05:37:27;67.28;;;30.52;;
76425;SDS011;65258;42.680;23.266;2022-12-31T05:39:53;68.32;;;31.13;;
76425;SDS011;65258;42.680;23.266;2022-12-31T05:42:19;62.25;;;31.15;;
76425;SDS011;65258;42.680;23.266;2022-12-31T05:44:45;66.72;;;31.52;;
76425;SDS011;65258;42.680;23.266;2022-12-31T05:47:11;77.18;;;34.00;;
76425;SDS011;65258;42.680;23.266;2022-12-31T05:49:36;74.40;;;33.90;;
76425;SDS011;65258;42.680;23.266;2022-12-31T05:52:02;63.15;;;30.17;;
76425;SDS011;65258;42.680;23.266;2022-12-31T05:54:27;66.38;;;31.98;;
76425;SDS011;65258;42.680;23.266;2022-12-31T05:56:53;67.47;;;28.92;;
76425;SDS011;65258;42.680;23.266;2022-12-31T05:59:18;62.75;;;30.00;;
76425;SDS011;65258;42.680;23.266;2022-12-31T06:01:44;62.45;;;29.58;;
76425;SDS011;65258;42.680;23.266;2022-12-31T06:04:09;66.45;;;31.05;;
76425;SDS011;65258;42.680;23.266;2022-12-31T06:06:35;65.68;;;27.77;;
76425;SDS011;65258;42.680;23.266;2022-12-31T06:09:01;59.80;;;28.63;;
76425;SDS011;65258;42.680;23.266;2022-12-31T06:11:26;58.50;;;26.35;;
76425;SDS011;65258;42.680;23.266;2022-12-31T06:13:52;63.33;;;29.98;;
76425;SDS011;65258;42.680;23.266;2022-12-31T06:16:17;58.25;;;28.63;;
76425;SDS011;65258;42.680;23.266;2022-12-31T06:18:45;48.85;;;25.92;;
76425;SDS011;65258;42.680;23.266;2022-12-31T06:21:11;54.45;;;27.35;;
76425;SDS011;65258;42.680;23.266;2022-12-31T06:23:39;54.95;;;27.17;;
76425;SDS011;65258;42.680;23.266;2022-12-31T06:26:04;60.00;;;26.33;;
76425;SDS011;65258;42.680;23.266;2022-12-31T06:28:31;53.53;;;26.38;;
76425;SDS011;65258;42.680;23.266;2022-12-31T06:31:04;55.45;;;25.70;;
76425;SDS011;65258;42.680;23.266;2022-12-31T06:33:32;56.70;;;26.77;;
76425;SDS011;65258;42.680;23.266;2022-12-31T06:35:58;48.75;;;24.52;;
76425;SDS011;65258;42.680;23.266;2022-12-31T06:38:26;48.08;;;23.75;;
76425;SDS011;65258;42.680;23.266;2022-12-31T06:40:53;48.10;;;23.23;;
76425;SDS011;65258;42.680;23.266;2022-12-31T06:43:19;46.70;;;24.17;;
76425;SDS011;65258;42.680;23.266;2022-12-31T06:45:44;46.25;;;22.98;;
76425;SDS011;65258;42.680;23.266;2022-12-31T06:48:10;41.85;;;21.58;;
76425;SDS011;65258;42.680;23.266;2022-12-31T06:50:36;40.88;;;22.75;;
76425;SDS011;65258;42.680;23.266;2022-12-31T06:53:02;39.17;;;21.65;;
76425;SDS011;65258;42.680;23.266;2022-12-31T06:55:27;41.75;;;22.52;;
76425;SDS011;65258;42.680;23.266;2022-12-31T06:57:53;37.20;;;20.90;;
76425;SDS011;65258;42.680;23.266;2022-12-31T07:00:19;43.40;;;21.98;;
76425;SDS011;65258;42.680;23.266;2022-12-31T07:16:03;33.65;;;20.52;;
76425;SDS011;65258;42.680;23.266;2022-12-31T07:21:06;37.25;;;21.45;;
76425;SDS011;65258;42.680;23.266;2022-12-31T07:23:36;39.50;;;23.77;;
76425;SDS011;65258;42.680;23.266;2022-12-31T07:26:04;35.60;;;23.48;;
76425;SDS011;65258;42.680;23.266;2022-12-31T07:31:40;41.70;;;24.38;;
76425;SDS011;65258;42.680;23.266;2022-12-31T07:37:12;37.47;;;23.13;;
76425;SDS011;65258;42.680;23.266;2022-12-31T07:45:26;44.05;;;23.05;;
76425;SDS011;65258;42.680;23.266;2022-12-31T07:47:54;42.03;;;26.63;;
76425;SDS011;65258;42.680;23.266;2022-12-31T07:50:19;40.97;;;24.63;;
76425;SDS011;65258;42.680;23.266;2022-12-31T07:52:45;36.17;;;22.70;;
76425;SDS011;65258;42.680;23.266;2022-12-31T07:55:11;37.00;;;24.55;;
76425;SDS011;65258;42.680;23.266;2022-12-31T07:57:39;39.28;;;26.08;;
76425;SDS011;65258;42.680;23.266;2022-12-31T08:00:13;37.92;;;25.67;;
76425;SDS011;65258;42.680;23.266;2022-12-31T08:08:26;20.75;;;13.18;;
76425;SDS011;65258;42.680;23.266;2022-12-31T08:14:13;26.67;;;17.35;;
76425;SDS011;65258;42.680;23.266;2022-12-31T08:16:39;30.27;;;18.45;;
76425;SDS011;65258;42.680;23.266;2022-12-31T08:19:05;31.52;;;17.95;;
76425;SDS011;65258;42.680;23.266;2022-12-31T08:21:37;24.38;;;16.75;;
76425;SDS011;65258;42.680;23.266;2022-12-31T08:24:14;27.05;;;15.35;;
76425;SDS011;65258;42.680;23.266;2022-12-31T08:26:55;26.02;;;15.45;;
76425;SDS011;65258;42.680;23.266;2022-12-31T08:29:41;23.23;;;15.40;;
76425;SDS011;65258;42.680;23.266;2022-12-31T08:32:35;21.95;;;13.95;;
76425;SDS011;65258;42.680;23.266;2022-12-31T08:35:15;21.88;;;14.60;;
76425;SDS011;65258;42.680;23.266;2022-12-31T08:37:46;19.02;;;12.43;;
76425;SDS011;65258;42.680;23.266;2022-12-31T08:43:19;21.35;;;14.18;;
76425;SDS011;65258;42.680;23.266;2022-12-31T08:46:13;24.25;;;14.18;;
76425;SDS011;65258;42.680;23.266;2022-12-31T08:49:00;23.60;;;13.30;;
76425;SDS011;65258;42.680;23.266;2022-12-31T08:51:26;24.27;;;14.48;;
76425;SDS011;65258;42.680;23.266;2022-12-31T08:53:52;25.70;;;14.80;;
76425;SDS011;65258;42.680;23.266;2022-12-31T08:56:32;21.15;;;13.68;;
76425;SDS011;65258;42.680;23.266;2022-12-31T08:59:33;25.95;;;15.75;;
76425;SDS011;65258;42.680;23.266;2022-12-31T09:07:57;28.27;;;17.00;;
76425;SDS011;65258;42.680;23.266;2022-12-31T09:14:14;28.75;;;16.80;;
76425;SDS011;65258;42.680;23.266;2022-12-31T09:16:47;27.35;;;15.77;;
76425;SDS011;65258;42.680;23.266;2022-12-31T09:19:14;26.40;;;15.00;;
76425;SDS011;65258;42.680;23.266;2022-12-31T09:21:42;25.55;;;15.88;;
76425;SDS011;65258;42.680;23.266;2022-12-31T09:24:10;25.50;;;16.65;;
76425;SDS011;65258;42.680;23.266;2022-12-31T09:26:47;29.10;;;17.67;;
76425;SDS011;65258;42.680;23.266;2022-12-31T09:37:28;29.45;;;17.65;;
76425;SDS011;65258;42.680;23.266;2022-12-31T09:40:09;32.28;;;21.05;;
76425;SDS011;65258;42.680;23.266;2022-12-31T09:51:16;37.67;;;21.50;;
76425;SDS011;65258;42.680;23.266;2022-12-31T10:10:33;34.33;;;20.95;;
76425;SDS011;65258;42.680;23.266;2022-12-31T10:13:35;35.38;;;22.63;;
76425;SDS011;65258;42.680;23.266;2022-12-31T10:16:32;37.63;;;23.13;;
76425;SDS011;65258;42.680;23.266;2022-12-31T10:19:33;41.40;;;25.13;;
76425;SDS011;65258;42.680;23.266;2022-12-31T10:27:42;37.33;;;23.23;;
76425;SDS011;65258;42.680;23.266;2022-12-31T10:30:14;35.05;;;22.17;;
76425;SDS011;65258;42.680;23.266;2022-12-31T10:49:50;34.67;;;22.20;;
76425;SDS011;65258;42.680;23.266;2022-12-31T10:55:47;31.77;;;20.48;;
76425;SDS011;65258;42.680;23.266;2022-12-31T11:20:41;33.38;;;22.58;;
76425;SDS011;65258;42.680;23.266;2022-12-31T11:31:47;37.95;;;22.98;;
76425;SDS011;65258;42.680;23.266;2022-12-31T11:37:17;35.40;;;22.30;;
76425;SDS011;65258;42.680;23.266;2022-12-31T11:54:06;35.67;;;20.88;;
76425;SDS011;65258;42.680;23.266;2022-12-31T11:56:59;33.50;;;20.05;;
76425;SDS011;65258;42.680;23.266;2022-12-31T11:59:34;32.35;;;20.92;;
76425;SDS011;65258;42.680;23.266;2022-12-31T12:02:01;32.88;;;21.02;;
76425;SDS011;65258;42.680;23.266;2022-12-31T12:04:28;35.75;;;22.15;;
76425;SDS011;65258;42.680;23.266;2022-12-31T12:06:55;37.15;;;22.45;;
76425;SDS011;65258;42.680;23.266;2022-12-31T12:09:23;36.13;;;23.35;;
76425;SDS011;65258;42.680;23.266;2022-12-31T12:11:59;35.03;;;23.45;;
76425;SDS011;65258;42.680;23.266;2022-12-31T12:14:34;42.03;;;24.98;;
76425;SDS011;65258;42.680;23.266;2022-12-31T12:17:02;41.92;;;25.95;;
76425;SDS011;65258;42.680;23.266;2022-12-31T12:19:31;40.50;;;25.75;;
76425;SDS011;65258;42.680;23.266;2022-12-31T12:21:58;41.13;;;25.73;;
76425;SDS011;65258;42.680;23.266;2022-12-31T12:24:34;37.17;;;21.42;;
76425;SDS011;65258;42.680;23.266;2022-12-31T12:27:00;29.58;;;19.75;;
76425;SDS011;65258;42.680;23.266;2022-12-31T12:29:27;33.13;;;20.80;;
76425;SDS011;65258;42.680;23.266;2022-12-31T12:31:57;29.83;;;19.80;;
76425;SDS011;65258;42.680;23.266;2022-12-31T12:34:23;30.85;;;19.10;;
76425;SDS011;65258;42.680;23.266;2022-12-31T12:36:51;36.80;;;19.05;;
76425;SDS011;65258;42.680;23.266;2022-12-31T12:39:21;28.75;;;19.17;;
76425;SDS011;65258;42.680;23.266;2022-12-31T12:41:58;33.38;;;18.83;;
76425;SDS011;65258;42.680;23.266;2022-12-31T12:44:28;33.88;;;19.55;;
76425;SDS011;65258;42.680;23.266;2022-12-31T12:46:54;36.20;;;21.33;;
76425;SDS011;65258;42.680;23.266;2022-12-31T12:49:21;30.92;;;18.80;;
76425;SDS011;65258;42.680;23.266;2022-12-31T12:57:16;27.45;;;17.00;;
76425;SDS011;65258;42.680;23.266;2022-12-31T13:13:58;39.78;;;26.40;;
76425;SDS011;65258;42.680;23.266;2022-12-31T13:16:35;46.47;;;25.73;;
76425;SDS011;65258;42.680;23.266;2022-12-31T13:29:36;38.80;;;24.70;;
76425;SDS011;65258;42.680;23.266;2022-12-31T13:32:06;42.10;;;24.60;;
76425;SDS011;65258;42.680;23.266;2022-12-31T13:34:34;38.95;;;23.77;;
76425;SDS011;65258;42.680;23.266;2022-12-31T13:40:04;34.03;;;21.17;;
76425;SDS011;65258;42.680;23.266;2022-12-31T13:42:44;34.63;;;21.48;;
76425;SDS011;65258;42.680;23.266;2022-12-31T13:45:37;37.22;;;21.40;;
76425;SDS011;65258;42.680;23.266;2022-12-31T13:48:11;36.38;;;23.38;;
76425;SDS011;65258;42.680;23.266;2022-12-31T13:53:20;39.08;;;23.10;;
76425;SDS011;65258;42.680;23.266;2022-12-31T13:58:34;41.00;;;24.55;;
76425;SDS011;65258;42.680;23.266;2022-12-31T14:01:12;34.40;;;22.80;;
76425;SDS011;65258;42.680;23.266;2022-12-31T14:03:46;42.67;;;24.00;;
76425;SDS011;65258;42.680;23.266;2022-12-31T14:08:45;39.55;;;24.52;;
76425;SDS011;65258;42.680;23.266;2022-12-31T14:16:58;40.22;;;24.63;;
76425;SDS011;65258;42.680;23.266;2022-12-31T14:24:52;40.05;;;25.98;;
76425;SDS011;65258;42.680;23.266;2022-12-31T14:27:41;46.72;;;25.10;;
76425;SDS011;65258;42.680;23.266;2022-12-31T14:30:14;39.67;;;24.10;;
76425;SDS011;65258;42.680;23.266;2022-12-31T14:38:07;40.17;;;23.60;;
76425;SDS011;65258;42.680;23.266;2022-12-31T14:43:54;38.08;;;24.48;;
76425;SDS011;65258;42.680;23.266;2022-12-31T14:54:39;38.72;;;22.80;;
76425;SDS011;65258;42.680;23.266;2022-12-31T14:57:09;35.53;;;22.23;;
76425;SDS011;65258;42.680;23.266;2022-12-31T14:59:49;37.63;;;21.83;;
76425;SDS011;65258;42.680;23.266;2022-12-31T15:02:47;35.70;;;21.45;;
76425;SDS011;65258;42.680;23.266;2022-12-31T15:10:18;35.88;;;21.73;;
76425;SDS011;65258;42.680;23.266;2022-12-31T15:18:30;37.42;;;18.92;;
76425;SDS011;65258;42.680;23.266;2022-12-31T15:23:53;34.35;;;18.30;;
76425;SDS011;65258;42.680;23.266;2022-12-31T15:26:22;37.47;;;22.15;;
76425;SDS011;65258;42.680;23.266;2022-12-31T15:29:07;36.47;;;21.70;;
76425;SDS011;65258;42.680;23.266;2022-12-31T15:31:48;41.00;;;23.52;;
76425;SDS011;65258;42.680;23.266;2022-12-31T15:34:24;37.72;;;22.95;;
76425;SDS011;65258;42.680;23.266;2022-12-31T15:41:55;33.13;;;20.45;;
76425;SDS011;65258;42.680;23.266;2022-12-31T15:47:16;38.42;;;20.95;;
76425;SDS011;65258;42.680;23.266;2022-12-31T15:49:53;33.47;;;21.08;;
76425;SDS011;65258;42.680;23.266;2022-12-31T15:55:05;33.80;;;18.08;;
76425;SDS011;65258;42.680;23.266;2022-12-31T15:57:35;30.90;;;17.70;;
76425;SDS011;65258;42.680;23.266;2022-12-31T16:00:06;26.77;;;16.45;;
76425;SDS011;65258;42.680;23.266;2022-12-31T16:02:41;29.75;;;15.88;;
76425;SDS011;65258;42.680;23.266;2022-12-31T16:05:20;28.63;;;16.00;;
76425;SDS011;65258;42.680;23.266;2022-12-31T16:07:51;24.25;;;15.60;;
76425;SDS011;65258;42.680;23.266;2022-12-31T16:10:29;25.60;;;14.55;;
76425;SDS011;65258;42.680;23.266;2022-12-31T16:12:56;23.45;;;14.38;;
76425;SDS011;65258;42.680;23.266;2022-12-31T16:15:24;28.15;;;15.32;;
76425;SDS011;65258;42.680;23.266;2022-12-31T16:18:04;28.67;;;16.95;;
76425;SDS011;65258;42.680;23.266;2022-12-31T16:20:40;29.95;;;17.42;;
76425;SDS011;65258;42.680;23.266;2022-12-31T16:23:15;38.22;;;18.65;;
76425;SDS011;65258;42.680;23.266;2022-12-31T16:25:45;29.75;;;17.70;;
76425;SDS011;65258;42.680;23.266;2022-12-31T16:28:13;34.22;;;17.85;;
76425;SDS011;65258;42.680;23.266;2022-12-31T16:30:43;26.17;;;17.42;;
76425;SDS011;65258;42.680;23.266;2022-12-31T16:33:10;31.35;;;17.85;;
76425;SDS011;65258;42.680;23.266;2022-12-31T16:35:38;34.05;;;19.30;;
76425;SDS011;65258;42.680;23.266;2022-12-31T16:40:32;30.20;;;18.33;;
76425;SDS011;65258;42.680;23.266;2022-12-31T16:42:58;64.15;;;31.90;;
76425;SDS011;65258;42.680;23.266;2022-12-31T16:45:29;70.25;;;39.22;;
76425;SDS011;65258;42.680;23.266;2022-12-31T16:48:10;55.10;;;30.98;;
76425;SDS011;65258;42.680;23.266;2022-12-31T16:50:48;88.10;;;46.20;;
76425;SDS011;65258;42.680;23.266;2022-12-31T16:53:20;65.63;;;34.95;;
76425;SDS011;65258;42.680;23.266;2022-12-31T16:55:51;62.03;;;32.80;;
76425;SDS011;65258;42.680;23.266;2022-12-31T16:58:22;55.17;;;30.35;;
76425;SDS011;65258;42.680;23.266;2022-12-31T17:01:12;59.85;;;30.20;;
76425;SDS011;65258;42.680;23.266;2022-12-31T17:03:46;48.85;;;29.63;;
76425;SDS011;65258;42.680;23.266;2022-12-31T17:06:18;49.35;;;26.98;;
76425;SDS011;65258;42.680;23.266;2022-12-31T17:11:17;58.38;;;29.42;;
76425;SDS011;65258;42.680;23.266;2022-12-31T17:13:54;53.50;;;29.23;;
76425;SDS011;65258;42.680;23.266;2022-12-31T17:16:50;55.40;;;29.35;;
76425;SDS011;65258;42.680;23.266;2022-12-31T17:19:31;54.60;;;29.98;;
76425;SDS011;65258;42.680;23.266;2022-12-31T17:22:03;53.17;;;30.65;;
76425;SDS011;65258;42.680;23.266;2022-12-31T17:24:35;59.35;;;29.17;;
76425;SDS011;65258;42.680;23.266;2022-12-31T17:27:05;61.13;;;30.98;;
76425;SDS011;65258;42.680;23.266;2022-12-31T17:29:32;52.80;;;30.30;;
76425;SDS011;65258;42.680;23.266;2022-12-31T17:34:29;54.50;;;31.40;;
76425;SDS011;65258;42.680;23.266;2022-12-31T17:39:41;53.92;;;29.10;;
76425;SDS011;65258;42.680;23.266;2022-12-31T17:42:09;55.13;;;28.65;;
76425;SDS011;65258;42.680;23.266;2022-12-31T17:44:37;46.20;;;27.80;;
76425;SDS011;65258;42.680;23.266;2022-12-31T17:47:06;57.00;;;29.45;;
76425;SDS011;65258;42.680;23.266;2022-12-31T17:49:35;51.55;;;27.38;;
76425;SDS011;65258;42.680;23.266;2022-12-31T17:52:01;58.55;;;27.52;;
76425;SDS011;65258;42.680;23.266;2022-12-31T17:54:27;49.40;;;26.02;;
76425;SDS011;65258;42.680;23.266;2022-12-31T17:56:53;48.00;;;26.90;;
76425;SDS011;65258;42.680;23.266;2022-12-31T17:59:24;50.50;;;27.83;;
76425;SDS011;65258;42.680;23.266;2022-12-31T18:01:55;48.47;;;26.02;;
76425;SDS011;65258;42.680;23.266;2022-12-31T18:04:24;44.03;;;25.00;;
76425;SDS011;65258;42.680;23.266;2022-12-31T18:06:50;45.30;;;26.13;;
76425;SDS011;65258;42.680;23.266;2022-12-31T18:09:16;44.20;;;23.17;;
76425;SDS011;65258;42.680;23.266;2022-12-31T18:11:42;40.03;;;22.00;;
76425;SDS011;65258;42.680;23.266;2022-12-31T18:14:13;35.53;;;20.60;;
76425;SDS011;65258;42.680;23.266;2022-12-31T18:16:39;37.83;;;20.55;;
76425;SDS011;65258;42.680;23.266;2022-12-31T18:19:09;40.38;;;20.17;;
76425;SDS011;65258;42.680;23.266;2022-12-31T18:21:37;31.90;;;18.77;;
76425;SDS011;65258;42.680;23.266;2022-12-31T18:24:03;36.80;;;21.23;;
76425;SDS011;65258;42.680;23.266;2022-12-31T18:26:29;36.70;;;20.42;;
76425;SDS011;65258;42.680;23.266;2022-12-31T18:28:58;36.08;;;21.58;;
76425;SDS011;65258;42.680;23.266;2022-12-31T18:31:27;38.17;;;19.98;;
76425;SDS011;65258;42.680;23.266;2022-12-31T18:36:20;43.15;;;23.05;;
76425;SDS011;65258;42.680;23.266;2022-12-31T18:38:48;50.63;;;27.35;;
76425;SDS011;65258;42.680;23.266;2022-12-31T18:41:17;60.20;;;31.38;;
76425;SDS011;65258;42.680;23.266;2022-12-31T18:43:44;62.50;;;33.58;;
76425;SDS011;65258;42.680;23.266;2022-12-31T18:46:14;57.30;;;28.85;;
76425;SDS011;65258;42.680;23.266;2022-12-31T18:48:41;83.45;;;38.60;;
76425;SDS011;65258;42.680;23.266;2022-12-31T18:51:15;67.57;;;35.45;;
76425;SDS011;65258;42.680;23.266;2022-12-31T18:53:42;74.53;;;38.72;;
76425;SDS011;65258;42.680;23.266;2022-12-31T18:56:12;84.68;;;45.25;;
76425;SDS011;65258;42.680;23.266;2022-12-31T18:58:39;84.25;;;45.38;;
76425;SDS011;65258;42.680;23.266;2022-12-31T19:01:15;80.57;;;43.55;;
76425;SDS011;65258;42.680;23.266;2022-12-31T19:03:46;78.13;;;39.47;;
76425;SDS011;65258;42.680;23.266;2022-12-31T19:06:11;80.22;;;42.78;;
76425;SDS011;65258;42.680;23.266;2022-12-31T19:08:37;66.72;;;34.03;;
76425;SDS011;65258;42.680;23.266;2022-12-31T19:11:03;62.40;;;33.25;;
76425;SDS011;65258;42.680;23.266;2022-12-31T19:13:28;63.38;;;33.72;;
76425;SDS011;65258;42.680;23.266;2022-12-31T19:15:54;56.47;;;32.33;;
76425;SDS011;65258;42.680;23.266;2022-12-31T19:18:19;67.25;;;33.20;;